createdAt,value
2022-10-17T00:00:32.954Z,1013.9
2022-10-17T00:01:35.557Z,1013.9
2022-10-17T00:02:38.503Z,1013.9
2022-10-17T00:03:41.211Z,1013.9
2022-10-17T00:04:43.645Z,1014
2022-10-17T00:05:46.501Z,1014
2022-10-17T00:06:49.396Z,1014
2022-10-17T00:07:51.911Z,1013.9
2022-10-17T00:08:54.147Z,1014
2022-10-17T00:09:57.097Z,1014
2022-10-17T00:10:59.894Z,1013.9
2022-10-17T00:12:02.980Z,1013.9
2022-10-17T00:13:04.881Z,1013.9
2022-10-17T00:14:08.247Z,1013.9
2022-10-17T00:15:11.583Z,1013.9
2022-10-17T00:16:15.754Z,1013.9
2022-10-17T00:17:19.013Z,1013.9
2022-10-17T00:18:22.115Z,1013.9
2022-10-17T00:19:25.541Z,1013.8
2022-10-17T00:20:28.314Z,1013.8
2022-10-17T00:21:30.537Z,1013.8
2022-10-17T00:22:33.008Z,1013.7
2022-10-17T00:23:36.179Z,1013.8
2022-10-17T00:24:38.694Z,1013.8
2022-10-17T00:25:41.569Z,1013.8
2022-10-17T00:26:44.943Z,1013.8
2022-10-17T00:27:47.862Z,1013.8
2022-10-17T00:28:51.395Z,1013.8
2022-10-17T00:29:54.895Z,1013.8
2022-10-17T00:30:57.412Z,1013.8
2022-10-17T00:32:01.230Z,1013.7
2022-10-17T00:33:04.402Z,1013.7
2022-10-17T00:34:07.187Z,1013.7
2022-10-17T00:35:10.339Z,1013.7
2022-10-17T00:36:13.600Z,1013.6
2022-10-17T00:37:16.759Z,1013.7
2022-10-17T00:38:19.819Z,1013.7
2022-10-17T00:39:22.605Z,1013.7
2022-10-17T00:40:25.468Z,1013.6
2022-10-17T00:41:28.063Z,1013.6
2022-10-17T00:42:31.808Z,1013.6
2022-10-17T00:43:34.509Z,1013.5
2022-10-17T00:44:37.522Z,1013.5
2022-10-17T00:45:39.937Z,1013.4
2022-10-17T00:46:42.918Z,1013.4
2022-10-17T00:47:47.081Z,1013.3
2022-10-17T00:48:49.311Z,1013.3
2022-10-17T00:49:52.568Z,1013.3
2022-10-17T00:50:55.217Z,1013.3
2022-10-17T00:51:58.551Z,1013.4
2022-10-17T00:53:01.071Z,1013.4
2022-10-17T00:54:03.904Z,1013.4
2022-10-17T00:55:07.003Z,1013.4
2022-10-17T00:56:10.144Z,1013.4
2022-10-17T00:57:13.675Z,1013.4
2022-10-17T00:58:16.263Z,1013.4
2022-10-17T00:59:19.783Z,1013.4
2022-10-17T01:00:22.883Z,1013.4
2022-10-17T01:01:25.960Z,1013.4
2022-10-17T01:02:29.945Z,1013.4
2022-10-17T01:03:34.442Z,1013.4
2022-10-17T01:04:36.964Z,1013.5
2022-10-17T01:05:39.126Z,1013.6
2022-10-17T01:06:42.471Z,1013.6
2022-10-17T01:07:45.538Z,1013.7
2022-10-17T01:08:48.616Z,1013.7
2022-10-17T01:09:51.122Z,1013.7
2022-10-17T01:10:54.182Z,1013.7
2022-10-17T01:11:57.602Z,1013.7
2022-10-17T01:12:59.645Z,1013.7
2022-10-17T01:14:02.922Z,1013.8
2022-10-17T01:15:05.520Z,1013.8
2022-10-17T01:16:08.960Z,1013.8
2022-10-17T01:17:12.420Z,1013.8
2022-10-17T01:18:15.513Z,1013.8
2022-10-17T01:19:19.737Z,1013.8
2022-10-17T01:20:23.390Z,1013.8
2022-10-17T01:21:26.100Z,1013.8
2022-10-17T01:22:28.568Z,1013.7
2022-10-17T01:23:32.688Z,1013.8
2022-10-17T01:24:36.112Z,1013.8
2022-10-17T01:25:39.261Z,1013.8
2022-10-17T01:26:42.984Z,1013.7
2022-10-17T01:27:46.057Z,1013.7
2022-10-17T01:28:49.407Z,1013.7
2022-10-17T01:29:52.186Z,1013.6
2022-10-17T01:30:55.276Z,1013.6
2022-10-17T01:31:58.362Z,1013.6
2022-10-17T01:33:01.786Z,1013.6
2022-10-17T01:34:04.298Z,1013.6
2022-10-17T01:35:08.404Z,1013.6
2022-10-17T01:36:11.932Z,1013.6
2022-10-17T01:37:15.293Z,1013.6
2022-10-17T01:38:17.809Z,1013.7
2022-10-17T01:39:20.521Z,1013.6
2022-10-17T01:40:23.938Z,1013.6
2022-10-17T01:41:26.541Z,1013.6
2022-10-17T01:42:30.933Z,1013.5
2022-10-17T01:43:34.147Z,1013.5
2022-10-17T01:44:37.878Z,1013.6
2022-10-17T01:45:40.944Z,1013.5
2022-10-17T01:46:44.234Z,1013.5
2022-10-17T01:47:47.226Z,1013.6
2022-10-17T01:48:50.876Z,1013.6
2022-10-17T01:49:53.939Z,1013.5
2022-10-17T01:50:58.007Z,1013.5
2022-10-17T01:52:00.310Z,1013.5
2022-10-17T01:53:03.381Z,1013.4
2022-10-17T01:54:06.363Z,1013.4
2022-10-17T01:55:09.207Z,1013.5
2022-10-17T01:56:12.620Z,1013.4
2022-10-17T01:57:15.568Z,1013.4
2022-10-17T01:58:18.913Z,1013.4
2022-10-17T01:59:21.779Z,1013.4
2022-10-17T02:00:24.490Z,1013.5
2022-10-17T02:01:27.685Z,1013.4
2022-10-17T02:02:30.983Z,1013.4
2022-10-17T02:03:33.788Z,1013.4
2022-10-17T02:04:36.833Z,1013.3
2022-10-17T02:05:39.336Z,1013.3
2022-10-17T02:06:43.551Z,1013.3
2022-10-17T02:07:46.342Z,1013.3
2022-10-17T02:08:49.411Z,1013.3
2022-10-17T02:09:52.849Z,1013.3
2022-10-17T02:10:55.732Z,1013.3
2022-10-17T02:11:58.645Z,1013.4
2022-10-17T02:13:01.429Z,1013.4
2022-10-17T02:14:04.894Z,1013.4
2022-10-17T02:15:08.323Z,1013.4
2022-10-17T02:16:11.681Z,1013.4
2022-10-17T02:17:14.203Z,1013.4
2022-10-17T02:18:16.996Z,1013.4
2022-10-17T02:19:20.109Z,1013.4
2022-10-17T02:20:23.091Z,1013.4
2022-10-17T02:21:25.872Z,1013.4
2022-10-17T02:22:29.704Z,1013.4
2022-10-17T02:23:33.007Z,1013.4
2022-10-17T02:24:36.427Z,1013.4
2022-10-17T02:25:39.219Z,1013.4
2022-10-17T02:26:42.456Z,1013.4
2022-10-17T02:27:45.161Z,1013.4
2022-10-17T02:28:47.803Z,1013.4
2022-10-17T02:29:51.490Z,1013.4
2022-10-17T02:30:53.927Z,1013.4
2022-10-17T02:31:56.799Z,1013.4
2022-10-17T02:32:59.588Z,1013.4
2022-10-17T02:34:02.292Z,1013.4
2022-10-17T02:35:05.120Z,1013.4
2022-10-17T02:36:07.988Z,1013.4
2022-10-17T02:37:11.050Z,1013.5
2022-10-17T02:38:14.874Z,1013.4
2022-10-17T02:39:18.365Z,1013.4
2022-10-17T02:40:21.462Z,1013.4
2022-10-17T02:41:24.103Z,1013.4
2022-10-17T02:42:28.014Z,1013.4
2022-10-17T02:43:32.733Z,1013.5
2022-10-17T02:44:35.169Z,1013.4
2022-10-17T02:45:37.871Z,1013.5
2022-10-17T02:46:40.311Z,1013.5
2022-10-17T02:47:43.375Z,1013.5
2022-10-17T02:48:46.724Z,1013.4
2022-10-17T02:49:49.273Z,1013.4
2022-10-17T02:50:52.449Z,1013.4
2022-10-17T02:51:55.321Z,1013.5
2022-10-17T02:52:58.589Z,1013.5
2022-10-17T02:54:02.419Z,1013.5
2022-10-17T02:55:04.931Z,1013.4
2022-10-17T02:56:07.433Z,1013.4
2022-10-17T02:57:10.297Z,1013.4
2022-10-17T02:58:13.373Z,1013.5
2022-10-17T02:59:16.352Z,1013.5
2022-10-17T03:00:19.760Z,1013.4
2022-10-17T03:01:23.346Z,1013.4
2022-10-17T03:02:26.754Z,1013.4
2022-10-17T03:03:32.077Z,1013.4
2022-10-17T03:04:34.784Z,1013.5
2022-10-17T03:05:37.213Z,1013.4
2022-10-17T03:06:40.025Z,1013.5
2022-10-17T03:07:42.724Z,1013.5
2022-10-17T03:08:44.945Z,1013.5
2022-10-17T03:09:49.126Z,1013.5
2022-10-17T03:10:51.717Z,1013.5
2022-10-17T03:11:54.965Z,1013.5
2022-10-17T03:12:57.954Z,1013.5
2022-10-17T03:14:00.655Z,1013.5
2022-10-17T03:15:03.484Z,1013.4
2022-10-17T03:16:07.211Z,1013.4
2022-10-17T03:17:10.374Z,1013.5
2022-10-17T03:18:13.161Z,1013.4
2022-10-17T03:19:16.338Z,1013.4
2022-10-17T03:20:19.988Z,1013.4
2022-10-17T03:21:23.113Z,1013.3
2022-10-17T03:22:25.848Z,1013.3
2022-10-17T03:23:30.407Z,1013.3
2022-10-17T03:24:33.225Z,1013.2
2022-10-17T03:25:37.154Z,1013.2
2022-10-17T03:26:40.810Z,1013.2
2022-10-17T03:27:44.166Z,1013.2
2022-10-17T03:28:51.910Z,1013.2
2022-10-17T03:29:57.481Z,1013.2
2022-10-17T03:31:00.287Z,1013.3
2022-10-17T03:32:03.144Z,1013.3
2022-10-17T03:33:06.205Z,1013.2
2022-10-17T03:34:08.981Z,1013.2
2022-10-17T03:35:15.565Z,1013.2
2022-10-17T03:36:18.912Z,1013.1
2022-10-17T03:37:21.723Z,1013.1
2022-10-17T03:38:24.888Z,1013.1
2022-10-17T03:39:28.009Z,1013.2
2022-10-17T03:40:31.624Z,1013.2
2022-10-17T03:41:35.444Z,1013.1
2022-10-17T03:42:38.425Z,1013.1
2022-10-17T03:43:41.963Z,1013.1
2022-10-17T03:44:45.741Z,1013.1
2022-10-17T03:45:48.195Z,1013
2022-10-17T03:46:50.898Z,1013
2022-10-17T03:47:53.879Z,1013
2022-10-17T03:48:57.245Z,1013
2022-10-17T03:50:00.680Z,1013
2022-10-17T03:51:03.149Z,1013
2022-10-17T03:52:05.861Z,1013
2022-10-17T03:53:09.196Z,1013
2022-10-17T03:54:11.825Z,1013
2022-10-17T03:55:14.605Z,1013
2022-10-17T03:56:17.976Z,1012.9
2022-10-17T03:57:22.138Z,1013
2022-10-17T03:58:24.930Z,1012.9
2022-10-17T03:59:27.915Z,1012.9
2022-10-17T04:00:31.361Z,1012.9
2022-10-17T04:01:34.496Z,1012.9
2022-10-17T04:02:38.478Z,1012.9
2022-10-17T04:03:42.179Z,1012.9
2022-10-17T04:04:45.254Z,1012.9
2022-10-17T04:05:47.866Z,1012.9
2022-10-17T04:06:50.973Z,1012.8
2022-10-17T04:07:53.762Z,1012.8
2022-10-17T04:08:56.911Z,1012.8
2022-10-17T04:10:00.545Z,1012.9
2022-10-17T04:11:03.039Z,1012.9
2022-10-17T04:12:06.532Z,1012.9
2022-10-17T04:13:10.644Z,1012.9
2022-10-17T04:14:12.787Z,1012.9
2022-10-17T04:15:16.193Z,1013
2022-10-17T04:16:19.636Z,1013
2022-10-17T04:17:22.792Z,1013
2022-10-17T04:18:25.865Z,1013
2022-10-17T04:19:28.288Z,1013
2022-10-17T04:20:31.747Z,1013
2022-10-17T04:21:34.617Z,1012.9
2022-10-17T04:22:37.684Z,1012.9
2022-10-17T04:23:40.576Z,1012.9
2022-10-17T04:24:43.132Z,1012.8
2022-10-17T04:25:46.161Z,1012.9
2022-10-17T04:26:49.020Z,1012.9
2022-10-17T04:27:51.812Z,1012.9
2022-10-17T04:28:55.734Z,1012.8
2022-10-17T04:29:58.833Z,1012.9
2022-10-17T04:31:01.693Z,1012.9
2022-10-17T04:32:04.208Z,1012.9
2022-10-17T04:33:06.999Z,1012.9
2022-10-17T04:34:09.313Z,1012.9
2022-10-17T04:35:12.192Z,1012.8
2022-10-17T04:36:15.258Z,1012.8
2022-10-17T04:37:18.247Z,1012.8
2022-10-17T04:38:27.768Z,1012.9
2022-10-17T04:39:32.081Z,1012.8
2022-10-17T04:40:35.543Z,1012.8
2022-10-17T04:41:38.002Z,1012.8
2022-10-17T04:42:41.334Z,1012.9
2022-10-17T04:43:50.247Z,1012.8
2022-10-17T04:44:55.567Z,1012.8
2022-10-17T04:45:57.879Z,1012.8
2022-10-17T04:47:00.944Z,1012.8
2022-10-17T04:48:04.011Z,1012.8
2022-10-17T04:49:06.996Z,1012.8
2022-10-17T04:50:10.050Z,1012.7
2022-10-17T04:51:13.536Z,1012.6
2022-10-17T04:52:16.540Z,1012.6
2022-10-17T04:53:19.430Z,1012.6
2022-10-17T04:54:22.211Z,1012.6
2022-10-17T04:55:25.585Z,1012.6
2022-10-17T04:56:28.736Z,1012.6
2022-10-17T04:57:31.547Z,1012.6
2022-10-17T04:58:34.796Z,1012.6
2022-10-17T04:59:37.945Z,1012.6
2022-10-17T05:00:41.971Z,1012.5
2022-10-17T05:01:45.106Z,1012.6
2022-10-17T05:02:48.838Z,1012.5
2022-10-17T05:03:51.988Z,1012.5
2022-10-17T05:04:55.053Z,1012.5
2022-10-17T05:05:58.845Z,1012.5
2022-10-17T05:07:01.936Z,1012.5
2022-10-17T05:08:05.361Z,1012.6
2022-10-17T05:09:08.792Z,1012.5
2022-10-17T05:10:11.944Z,1012.5
2022-10-17T05:11:14.545Z,1012.6
2022-10-17T05:12:17.694Z,1012.5
2022-10-17T05:13:20.855Z,1012.5
2022-10-17T05:14:24.101Z,1012.5
2022-10-17T05:15:27.438Z,1012.5
2022-10-17T05:16:31.543Z,1012.5
2022-10-17T05:17:35.255Z,1012.5
2022-10-17T05:18:38.673Z,1012.5
2022-10-17T05:19:41.186Z,1012.5
2022-10-17T05:20:43.964Z,1012.5
2022-10-17T05:21:47.143Z,1012.5
2022-10-17T05:22:50.484Z,1012.5
2022-10-17T05:23:54.182Z,1012.5
2022-10-17T05:24:57.511Z,1012.5
2022-10-17T05:26:00.439Z,1012.5
2022-10-17T05:27:03.631Z,1012.5
2022-10-17T05:28:06.494Z,1012.4
2022-10-17T05:29:09.542Z,1012.4
2022-10-17T05:30:13.202Z,1012.4
2022-10-17T05:31:16.079Z,1012.3
2022-10-17T05:32:20.258Z,1012.3
2022-10-17T05:33:23.950Z,1012.3
2022-10-17T05:34:27.401Z,1012.4
2022-10-17T05:35:29.830Z,1012.3
2022-10-17T05:36:32.617Z,1012.4
2022-10-17T05:37:35.477Z,1012.3
2022-10-17T05:38:38.546Z,1012.3
2022-10-17T05:39:41.409Z,1012.3
2022-10-17T05:40:44.557Z,1012.3
2022-10-17T05:41:47.415Z,1012.3
2022-10-17T05:42:50.655Z,1012.4
2022-10-17T05:43:53.099Z,1012.3
2022-10-17T05:44:56.343Z,1012.3
2022-10-17T05:45:59.416Z,1012.3
2022-10-17T05:47:03.413Z,1012.3
2022-10-17T05:48:07.306Z,1012.3
2022-10-17T05:49:32.432Z,1012.3
2022-10-17T05:50:55.302Z,1012.3
2022-10-17T05:51:58.407Z,1012.3
2022-10-17T05:53:01.546Z,1012.3
2022-10-17T05:54:04.612Z,1012.3
2022-10-17T05:55:08.148Z,1012.3
2022-10-17T05:56:11.328Z,1012.2
2022-10-17T05:57:13.564Z,1012.3
2022-10-17T05:58:38.685Z,1012.3
2022-10-17T06:00:03.371Z,1012.2
2022-10-17T06:01:09.423Z,1012.2
2022-10-17T06:02:15.749Z,1012.2
2022-10-17T06:03:20.694Z,1012.2
2022-10-17T06:04:24.062Z,1012.2
2022-10-17T06:05:26.307Z,1012.2
2022-10-17T06:06:29.295Z,1012.2
2022-10-17T06:07:32.182Z,1012.3
2022-10-17T06:08:35.245Z,1012.3
2022-10-17T06:09:38.789Z,1012.4
2022-10-17T06:10:42.115Z,1012.4
2022-10-17T06:11:45.201Z,1012.4
2022-10-17T06:12:48.261Z,1012.4
2022-10-17T06:13:51.611Z,1012.4
2022-10-17T06:14:54.553Z,1012.4
2022-10-17T06:15:57.999Z,1012.5
2022-10-17T06:17:01.251Z,1012.4
2022-10-17T06:18:04.045Z,1012.4
2022-10-17T06:19:07.865Z,1012.4
2022-10-17T06:20:11.232Z,1012.5
2022-10-17T06:21:14.023Z,1012.5
2022-10-17T06:22:17.069Z,1012.5
2022-10-17T06:23:20.229Z,1012.5
2022-10-17T06:24:23.298Z,1012.5
2022-10-17T06:25:26.182Z,1012.4
2022-10-17T06:26:29.632Z,1012.5
2022-10-17T06:27:32.882Z,1012.5
2022-10-17T06:28:36.708Z,1012.5
2022-10-17T06:29:40.878Z,1012.4
2022-10-17T06:30:43.404Z,1012.5
2022-10-17T06:31:46.488Z,1012.5
2022-10-17T06:32:49.712Z,1012.5
2022-10-17T06:33:53.161Z,1012.5
2022-10-17T06:34:57.362Z,1012.5
2022-10-17T06:36:00.821Z,1012.5
2022-10-17T06:37:04.163Z,1012.5
2022-10-17T06:38:06.765Z,1012.5
2022-10-17T06:39:10.776Z,1012.5
2022-10-17T06:40:13.760Z,1012.6
2022-10-17T06:41:16.551Z,1012.6
2022-10-17T06:42:19.691Z,1012.6
2022-10-17T06:43:28.353Z,1012.5
2022-10-17T06:44:31.225Z,1012.6
2022-10-17T06:45:34.067Z,1012.7
2022-10-17T06:46:36.582Z,1012.6
2022-10-17T06:47:39.195Z,1012.6
2022-10-17T06:48:42.526Z,1012.6
2022-10-17T06:49:46.278Z,1012.6
2022-10-17T06:50:50.400Z,1012.6
2022-10-17T06:51:53.469Z,1012.7
2022-10-17T06:52:56.805Z,1012.7
2022-10-17T06:53:59.593Z,1012.7
2022-10-17T06:56:06.002Z,1012.7
2022-10-17T06:57:09.509Z,1012.7
2022-10-17T06:58:12.957Z,1012.7
2022-10-17T06:59:15.778Z,1012.7
2022-10-17T07:00:18.369Z,1012.8
2022-10-17T07:01:20.944Z,1012.7
2022-10-17T07:02:23.824Z,1012.7
2022-10-17T07:03:27.221Z,1012.7
2022-10-17T07:04:30.621Z,1012.8
2022-10-17T07:05:33.403Z,1012.7
2022-10-17T07:06:37.539Z,1012.7
2022-10-17T07:07:44.844Z,1012.7
2022-10-17T07:08:54.391Z,1012.8
2022-10-17T07:09:57.531Z,1012.8
2022-10-17T07:10:59.412Z,1012.8
2022-10-17T07:12:02.677Z,1012.8
2022-10-17T07:13:06.019Z,1012.8
2022-10-17T07:14:09.653Z,1012.7
2022-10-17T07:15:12.715Z,1012.7
2022-10-17T07:16:16.167Z,1012.7
2022-10-17T07:17:19.053Z,1012.7
2022-10-17T07:18:21.567Z,1012.7
2022-10-17T07:19:24.867Z,1012.7
2022-10-17T07:20:27.988Z,1012.7
2022-10-17T07:21:35.329Z,1012.7
2022-10-17T07:22:43.099Z,1012.7
2022-10-17T07:23:45.693Z,1012.6
2022-10-17T07:25:52.771Z,1012.6
2022-10-17T07:26:55.901Z,1012.6
2022-10-17T07:27:58.886Z,1012.6
2022-10-17T07:29:01.999Z,1012.6
2022-10-17T07:30:05.421Z,1012.5
2022-10-17T07:31:07.904Z,1012.5
2022-10-17T07:32:10.419Z,1012.5
2022-10-17T07:33:13.138Z,1012.5
2022-10-17T07:34:16.130Z,1012.5
2022-10-17T07:35:19.872Z,1012.5
2022-10-17T07:36:22.728Z,1012.5
2022-10-17T07:37:25.628Z,1012.5
2022-10-17T07:38:31.102Z,1012.5
2022-10-17T07:39:34.171Z,1012.6
2022-10-17T07:40:37.274Z,1012.5
2022-10-17T07:41:40.626Z,1012.6
2022-10-17T07:42:44.336Z,1012.6
2022-10-17T07:43:47.253Z,1012.6
2022-10-17T07:44:50.342Z,1012.6
2022-10-17T07:45:54.035Z,1012.5
2022-10-17T07:46:56.773Z,1012.4
2022-10-17T07:47:59.709Z,1012.4
2022-10-17T07:49:02.696Z,1012.4
2022-10-17T07:50:05.195Z,1012.4
2022-10-17T07:51:08.397Z,1012.4
2022-10-17T07:52:11.661Z,1012.4
2022-10-17T07:53:14.442Z,1012.4
2022-10-17T07:54:18.593Z,1012.5
2022-10-17T07:55:21.422Z,1012.5
2022-10-17T07:56:24.411Z,1012.5
2022-10-17T07:57:27.902Z,1012.4
2022-10-17T07:58:31.133Z,1012.4
2022-10-17T07:59:34.827Z,1012.4
2022-10-17T08:00:37.974Z,1012.4
2022-10-17T08:01:41.778Z,1012.4
2022-10-17T08:02:44.360Z,1012.4
2022-10-17T08:03:47.431Z,1012.4
2022-10-17T08:04:50.592Z,1012.4
2022-10-17T08:05:53.102Z,1012.3
2022-10-17T08:07:18.523Z,1012.3
2022-10-17T08:08:32.194Z,1012.4
2022-10-17T08:09:36.296Z,1012.4
2022-10-17T08:10:39.948Z,1012.4
2022-10-17T08:11:43.013Z,1012.3
2022-10-17T08:12:46.131Z,1012.4
2022-10-17T08:13:49.494Z,1012.4
2022-10-17T08:14:52.551Z,1012.4
2022-10-17T08:15:55.643Z,1012.4
2022-10-17T08:16:58.783Z,1012.4
2022-10-17T08:18:01.292Z,1012.4
2022-10-17T08:19:05.054Z,1012.5
2022-10-17T08:20:08.335Z,1012.5
2022-10-17T08:21:11.691Z,1012.5
2022-10-17T08:22:14.615Z,1012.5
2022-10-17T08:23:17.406Z,1012.5
2022-10-17T08:24:20.398Z,1012.5
2022-10-17T08:25:24.522Z,1012.5
2022-10-17T08:26:27.865Z,1012.5
2022-10-17T08:27:31.005Z,1012.5
2022-10-17T08:28:34.041Z,1012.5
2022-10-17T08:29:37.589Z,1012.6
2022-10-17T08:30:41.006Z,1012.5
2022-10-17T08:31:49.933Z,1012.4
2022-10-17T08:33:11.165Z,1012.4
2022-10-17T08:34:14.809Z,1012.4
2022-10-17T08:35:18.493Z,1012.3
2022-10-17T08:36:21.473Z,1012.3
2022-10-17T08:37:24.382Z,1012.2
2022-10-17T08:38:29.392Z,1012.2
2022-10-17T08:39:45.312Z,1012.2
2022-10-17T08:40:49.480Z,1012.2
2022-10-17T08:41:52.902Z,1012.2
2022-10-17T08:42:56.556Z,1012.2
2022-10-17T08:44:00.201Z,1012.2
2022-10-17T08:45:03.626Z,1012.3
2022-10-17T08:46:07.164Z,1012.3
2022-10-17T08:47:10.496Z,1012.4
2022-10-17T08:48:13.580Z,1012.4
2022-10-17T08:49:16.566Z,1012.4
2022-10-17T08:50:19.190Z,1012.4
2022-10-17T08:51:22.376Z,1012.5
2022-10-17T08:52:25.529Z,1012.5
2022-10-17T08:53:29.283Z,1012.5
2022-10-17T08:54:33.114Z,1012.5
2022-10-17T08:55:39.925Z,1012.5
2022-10-17T08:56:50.171Z,1012.4
2022-10-17T08:57:53.432Z,1012.3
2022-10-17T08:58:56.523Z,1012.3
2022-10-17T08:59:59.121Z,1012.3
2022-10-17T09:01:02.494Z,1012.2
2022-10-17T09:02:08.446Z,1012.3
2022-10-17T09:03:12.317Z,1012.2
2022-10-17T09:04:16.134Z,1012.3
2022-10-17T09:05:26.543Z,1012.3
2022-10-17T09:06:29.712Z,1012.2
2022-10-17T09:07:33.531Z,1012.2
2022-10-17T09:08:35.991Z,1012.3
2022-10-17T09:09:39.334Z,1012.3
2022-10-17T09:10:42.474Z,1012.4
2022-10-17T09:11:46.123Z,1012.3
2022-10-17T09:12:50.270Z,1012.3
2022-10-17T09:13:53.052Z,1012.3
2022-10-17T09:14:56.503Z,1012.3
2022-10-17T09:15:59.949Z,1012.3
2022-10-17T09:17:03.955Z,1012.3
2022-10-17T09:18:06.841Z,1012.3
2022-10-17T09:19:09.913Z,1012.3
2022-10-17T09:20:12.456Z,1012.3
2022-10-17T09:21:16.069Z,1012.3
2022-10-17T09:22:19.823Z,1012.3
2022-10-17T09:23:23.271Z,1012.3
2022-10-17T09:24:26.861Z,1012.3
2022-10-17T09:25:30.014Z,1012.3
2022-10-17T09:26:33.242Z,1012.3
2022-10-17T09:27:36.842Z,1012.3
2022-10-17T09:28:41.141Z,1012.3
2022-10-17T09:29:44.672Z,1012.2
2022-10-17T09:30:48.362Z,1012.2
2022-10-17T09:31:51.365Z,1012.2
2022-10-17T09:32:55.050Z,1012.2
2022-10-17T09:33:58.451Z,1012.2
2022-10-17T09:35:01.689Z,1012.2
2022-10-17T09:36:05.179Z,1012.1
2022-10-17T09:37:07.970Z,1012.2
2022-10-17T09:38:11.344Z,1012.2
2022-10-17T09:39:14.695Z,1012.2
2022-10-17T09:40:17.511Z,1012.1
2022-10-17T09:41:46.288Z,1012.1
2022-10-17T09:42:49.816Z,1012.1
2022-10-17T09:43:53.891Z,1012.1
2022-10-17T09:44:57.335Z,1012.1
2022-10-17T09:46:00.507Z,1012.1
2022-10-17T09:47:04.360Z,1012
2022-10-17T09:48:06.692Z,1012.1
2022-10-17T09:49:13.549Z,1012
2022-10-17T09:50:20.354Z,1012
2022-10-17T09:51:26.466Z,1012
2022-10-17T09:52:30.130Z,1012
2022-10-17T09:53:34.591Z,1012.1
2022-10-17T09:54:37.660Z,1012
2022-10-17T09:55:41.075Z,1012
2022-10-17T09:56:44.803Z,1012
2022-10-17T09:57:47.956Z,1012
2022-10-17T09:58:51.404Z,1012
2022-10-17T09:59:55.577Z,1012
2022-10-17T10:00:58.375Z,1012
2022-10-17T10:02:01.298Z,1012.1
2022-10-17T10:03:04.092Z,1012.1
2022-10-17T10:04:06.831Z,1012
2022-10-17T10:05:09.721Z,1012
2022-10-17T10:06:12.786Z,1012
2022-10-17T10:07:15.728Z,1012
2022-10-17T10:08:19.384Z,1012.1
2022-10-17T10:09:22.648Z,1012.1
2022-10-17T10:10:28.492Z,1012
2022-10-17T10:11:31.997Z,1012.1
2022-10-17T10:12:34.905Z,1012
2022-10-17T10:13:37.343Z,1012
2022-10-17T10:14:40.298Z,1011.9
2022-10-17T10:15:50.135Z,1012
2022-10-17T10:16:53.227Z,1011.9
2022-10-17T10:17:55.834Z,1011.9
2022-10-17T10:18:59.270Z,1011.9
2022-10-17T10:20:04.277Z,1011.9
2022-10-17T10:21:07.441Z,1011.9
2022-10-17T10:22:10.605Z,1012
2022-10-17T10:23:13.314Z,1011.9
2022-10-17T10:24:16.926Z,1011.9
2022-10-17T10:25:20.716Z,1012
2022-10-17T10:26:23.859Z,1012
2022-10-17T10:27:27.123Z,1012
2022-10-17T10:28:30.468Z,1012
2022-10-17T10:29:33.862Z,1012
2022-10-17T10:30:40.424Z,1012.1
2022-10-17T10:31:44.552Z,1012
2022-10-17T10:32:47.618Z,1012
2022-10-17T10:33:57.493Z,1012
2022-10-17T10:35:01.263Z,1012.1
2022-10-17T10:36:04.434Z,1012
2022-10-17T10:37:07.604Z,1012.1
2022-10-17T10:38:18.732Z,1012.1
2022-10-17T10:39:22.104Z,1012.1
2022-10-17T10:40:25.498Z,1012
2022-10-17T10:41:28.176Z,1012.1
2022-10-17T10:42:30.914Z,1012.1
2022-10-17T10:43:34.378Z,1012.1
2022-10-17T10:44:38.102Z,1012.1
2022-10-17T10:45:49.708Z,1012
2022-10-17T10:46:53.975Z,1012
2022-10-17T10:47:57.057Z,1012.1
2022-10-17T10:48:59.947Z,1012.1
2022-10-17T10:50:02.891Z,1012.1
2022-10-17T10:51:06.125Z,1012.1
2022-10-17T10:52:09.564Z,1012.2
2022-10-17T10:53:12.734Z,1012.2
2022-10-17T10:54:15.407Z,1012.2
2022-10-17T10:55:18.575Z,1012.2
2022-10-17T10:56:21.718Z,1012.2
2022-10-17T10:57:24.790Z,1012.2
2022-10-17T10:58:29.683Z,1012.2
2022-10-17T10:59:33.128Z,1012.2
2022-10-17T11:00:36.987Z,1012.3
2022-10-17T11:01:41.098Z,1012.2
2022-10-17T11:02:45.255Z,1012.2
2022-10-17T11:03:48.429Z,1012.2
2022-10-17T11:04:52.151Z,1012.2
2022-10-17T11:05:55.609Z,1012.2
2022-10-17T11:06:59.333Z,1012.2
2022-10-17T11:08:03.067Z,1012.3
2022-10-17T11:09:06.395Z,1012.2
2022-10-17T11:10:09.088Z,1012.2
2022-10-17T11:11:12.500Z,1012.2
2022-10-17T11:12:16.218Z,1012.2
2022-10-17T11:13:18.730Z,1012.2
2022-10-17T11:14:21.826Z,1012.2
2022-10-17T11:15:24.810Z,1012.2
2022-10-17T11:16:28.195Z,1012.2
2022-10-17T11:17:32.675Z,1012.2
2022-10-17T11:18:37.087Z,1012.3
2022-10-17T11:19:40.994Z,1012.3
2022-10-17T11:20:43.513Z,1012.2
2022-10-17T11:21:45.753Z,1012.3
2022-10-17T11:22:48.652Z,1012.2
2022-10-17T11:23:51.364Z,1012.2
2022-10-17T11:24:55.091Z,1012.2
2022-10-17T11:25:57.602Z,1012.2
2022-10-17T11:27:00.402Z,1012.2
2022-10-17T11:28:05.762Z,1012.2
2022-10-17T11:29:09.714Z,1012.2
2022-10-17T11:30:12.524Z,1012.2
2022-10-17T11:31:15.634Z,1012.2
2022-10-17T11:32:18.630Z,1012.2
2022-10-17T11:33:22.083Z,1012.2
2022-10-17T11:34:26.360Z,1012.1
2022-10-17T11:35:30.350Z,1012.2
2022-10-17T11:36:33.494Z,1012.1
2022-10-17T11:37:37.217Z,1012.2
2022-10-17T11:38:42.619Z,1012.2
2022-10-17T11:40:48.663Z,1012.2
2022-10-17T11:41:55.354Z,1012.2
2022-10-17T11:43:06.057Z,1012.2
2022-10-17T11:44:09.692Z,1012.2
2022-10-17T11:45:13.145Z,1012.2
2022-10-17T11:46:16.340Z,1012.2
2022-10-17T11:47:19.441Z,1012.2
2022-10-17T11:48:22.540Z,1012.2
2022-10-17T11:53:05.824Z,1012.3
2022-10-17T11:54:08.826Z,1012.3
2022-10-17T11:55:12.253Z,1012.3
2022-10-17T11:56:15.360Z,1012.3
2022-10-17T11:57:18.801Z,1012.4
2022-10-17T11:58:21.617Z,1012.4
2022-10-17T11:59:25.586Z,1012.4
2022-10-17T12:00:29.041Z,1012.4
2022-10-17T12:01:31.867Z,1012.4
2022-10-17T12:02:35.290Z,1012.4
2022-10-17T12:03:38.262Z,1012.3
2022-10-17T12:04:49.196Z,1012.3
2022-10-17T12:05:53.912Z,1012.2
2022-10-17T12:06:56.775Z,1012.2
2022-10-17T12:08:00.305Z,1012.2
2022-10-17T12:09:03.151Z,1012.2
2022-10-17T12:10:06.510Z,1012.2
2022-10-17T12:11:09.010Z,1012.2
2022-10-17T12:12:12.274Z,1012.2
2022-10-17T12:13:15.217Z,1012.2
2022-10-17T12:14:18.032Z,1012.2
2022-10-17T12:15:21.011Z,1012.2
2022-10-17T12:16:24.130Z,1012.1
2022-10-17T12:17:28.305Z,1012.1
2022-10-17T12:18:33.142Z,1012.1
2022-10-17T12:19:36.303Z,1012
2022-10-17T12:20:39.364Z,1012
2022-10-17T12:21:44.030Z,1012
2022-10-17T12:22:47.185Z,1012
2022-10-17T12:23:49.792Z,1012
2022-10-17T12:24:53.162Z,1012
2022-10-17T12:26:03.122Z,1011.9
2022-10-17T12:27:08.342Z,1011.9
2022-10-17T12:28:11.511Z,1011.9
2022-10-17T12:29:15.010Z,1011.9
2022-10-17T12:30:18.385Z,1011.9
2022-10-17T12:31:21.169Z,1011.9
2022-10-17T12:32:24.436Z,1011.9
2022-10-17T12:34:09.643Z,1011.9
2022-10-17T12:35:12.697Z,1011.9
2022-10-17T12:36:15.866Z,1011.9
2022-10-17T12:37:20.053Z,1011.9
2022-10-17T12:38:22.925Z,1011.9
2022-10-17T12:39:26.438Z,1011.8
2022-10-17T12:40:29.815Z,1011.9
2022-10-17T12:41:33.395Z,1011.8
2022-10-17T12:42:35.927Z,1011.8
2022-10-17T12:43:44.921Z,1011.7
2022-10-17T12:44:51.759Z,1011.7
2022-10-17T12:45:55.059Z,1011.8
2022-10-17T12:46:58.224Z,1011.8
2022-10-17T12:48:01.360Z,1011.8
2022-10-17T12:49:04.792Z,1011.8
2022-10-17T12:50:08.536Z,1011.8
2022-10-17T12:51:36.293Z,1011.8
2022-10-17T12:52:41.977Z,1011.8
2022-10-17T12:53:45.318Z,1011.8
2022-10-17T12:55:13.353Z,1011.8
2022-10-17T12:56:17.507Z,1011.9
2022-10-17T12:57:20.289Z,1011.9
2022-10-17T12:58:23.171Z,1011.8
2022-10-17T12:59:26.533Z,1011.8
2022-10-17T13:00:28.873Z,1011.8
2022-10-17T13:01:32.694Z,1011.8
2022-10-17T13:02:35.735Z,1011.8
2022-10-17T13:03:39.219Z,1011.8
2022-10-17T13:04:42.486Z,1011.8
2022-10-17T13:05:45.726Z,1011.8
2022-10-17T13:06:49.569Z,1011.8
2022-10-17T13:07:53.806Z,1011.8
2022-10-17T13:09:04.011Z,1011.8
2022-10-17T13:10:09.061Z,1011.8
2022-10-17T13:11:17.822Z,1011.8
2022-10-17T13:12:20.886Z,1011.8
2022-10-17T13:13:23.628Z,1011.8
2022-10-17T13:14:26.803Z,1011.8
2022-10-17T13:15:29.847Z,1011.9
2022-10-17T13:16:33.556Z,1011.9
2022-10-17T13:17:40.629Z,1011.9
2022-10-17T13:18:46.894Z,1011.8
2022-10-17T13:19:50.404Z,1011.8
2022-10-17T13:20:53.501Z,1011.8
2022-10-17T13:21:57.969Z,1011.7
2022-10-17T13:23:10.516Z,1011.7
2022-10-17T13:24:13.325Z,1011.8
2022-10-17T13:25:16.464Z,1011.8
2022-10-17T13:26:19.334Z,1011.9
2022-10-17T13:27:23.217Z,1011.9